sensor_id;sensor_type;location;lat;lon;timestamp;P1;durP1;ratioP1;P2;durP2;ratioP2
18507;SDS011;9383;50.928;12.116;2022-07-29T00:02:05;4.97;;;1.83;;
18507;SDS011;9383;50.928;12.116;2022-07-29T00:04:33;3.33;;;1.55;;
18507;SDS011;9383;50.928;12.116;2022-07-29T00:07:00;4.43;;;1.38;;
18507;SDS011;9383;50.928;12.116;2022-07-29T00:09:27;4.15;;;1.73;;
18507;SDS011;9383;50.928;12.116;2022-07-29T00:11:53;5.32;;;1.88;;
18507;SDS011;9383;50.928;12.116;2022-07-29T00:14:24;3.30;;;1.65;;
18507;SDS011;9383;50.928;12.116;2022-07-29T00:16:50;3.35;;;1.65;;
18507;SDS011;9383;50.928;12.116;2022-07-29T00:19:16;3.45;;;1.70;;
18507;SDS011;9383;50.928;12.116;2022-07-29T00:21:42;6.05;;;1.90;;
18507;SDS011;9383;50.928;12.116;2022-07-29T00:24:08;3.15;;;1.75;;
18507;SDS011;9383;50.928;12.116;2022-07-29T00:26:34;5.75;;;1.48;;
18507;SDS011;9383;50.928;12.116;2022-07-29T00:29:01;2.38;;;1.52;;
18507;SDS011;9383;50.928;12.116;2022-07-29T00:31:28;3.03;;;2.00;;
18507;SDS011;9383;50.928;12.116;2022-07-29T00:33:55;3.20;;;1.70;;
18507;SDS011;9383;50.928;12.116;2022-07-29T00:36:21;1.80;;;1.63;;
18507;SDS011;9383;50.928;12.116;2022-07-29T00:38:48;3.58;;;1.40;;
18507;SDS011;9383;50.928;12.116;2022-07-29T00:41:16;3.95;;;1.70;;
18507;SDS011;9383;50.928;12.116;2022-07-29T00:43:43;2.65;;;1.55;;
18507;SDS011;9383;50.928;12.116;2022-07-29T00:46:10;4.20;;;1.50;;
18507;SDS011;9383;50.928;12.116;2022-07-29T00:48:37;3.22;;;1.60;;
18507;SDS011;9383;50.928;12.116;2022-07-29T00:51:04;2.33;;;1.60;;
18507;SDS011;9383;50.928;12.116;2022-07-29T00:53:32;3.00;;;1.50;;
18507;SDS011;9383;50.928;12.116;2022-07-29T00:56:00;4.00;;;1.70;;
18507;SDS011;9383;50.928;12.116;2022-07-29T00:58:27;6.22;;;1.73;;
18507;SDS011;9383;50.928;12.116;2022-07-29T01:00:53;2.65;;;1.85;;
18507;SDS011;9383;50.928;12.116;2022-07-29T01:03:19;3.05;;;1.13;;
18507;SDS011;9383;50.928;12.116;2022-07-29T01:05:45;2.85;;;1.45;;
18507;SDS011;9383;50.928;12.116;2022-07-29T01:08:14;4.22;;;1.75;;
18507;SDS011;9383;50.928;12.116;2022-07-29T01:10:41;6.20;;;1.60;;
18507;SDS011;9383;50.928;12.116;2022-07-29T01:13:09;2.05;;;1.60;;
18507;SDS011;9383;50.928;12.116;2022-07-29T01:15:38;2.92;;;1.75;;
18507;SDS011;9383;50.928;12.116;2022-07-29T01:18:20;2.72;;;1.67;;
18507;SDS011;9383;50.928;12.116;2022-07-29T01:24:11;3.05;;;1.50;;
18507;SDS011;9383;50.928;12.116;2022-07-29T01:26:57;4.97;;;1.70;;
18507;SDS011;9383;50.928;12.116;2022-07-29T01:29:41;5.72;;;1.67;;
18507;SDS011;9383;50.928;12.116;2022-07-29T01:32:14;4.13;;;1.60;;
18507;SDS011;9383;50.928;12.116;2022-07-29T01:35:02;3.38;;;1.40;;
18507;SDS011;9383;50.928;12.116;2022-07-29T01:37:46;2.97;;;1.60;;
18507;SDS011;9383;50.928;12.116;2022-07-29T01:40:33;5.80;;;1.58;;
18507;SDS011;9383;50.928;12.116;2022-07-29T01:43:23;3.55;;;1.42;;
18507;SDS011;9383;50.928;12.116;2022-07-29T01:46:33;3.13;;;1.50;;
18507;SDS011;9383;50.928;12.116;2022-07-29T01:49:10;3.35;;;1.80;;
18507;SDS011;9383;50.928;12.116;2022-07-29T01:54:26;1.75;;;1.65;;
18507;SDS011;9383;50.928;12.116;2022-07-29T01:57:09;3.17;;;1.52;;
18507;SDS011;9383;50.928;12.116;2022-07-29T01:59:39;2.50;;;1.50;;
18507;SDS011;9383;50.928;12.116;2022-07-29T02:02:10;3.47;;;1.63;;
18507;SDS011;9383;50.928;12.116;2022-07-29T02:04:40;1.52;;;1.42;;
18507;SDS011;9383;50.928;12.116;2022-07-29T02:07:10;4.38;;;1.75;;
18507;SDS011;9383;50.928;12.116;2022-07-29T02:09:43;4.38;;;1.58;;
18507;SDS011;9383;50.928;12.116;2022-07-29T02:12:13;2.45;;;1.60;;
18507;SDS011;9383;50.928;12.116;2022-07-29T02:14:50;5.13;;;1.75;;
18507;SDS011;9383;50.928;12.116;2022-07-29T02:17:31;17.23;;;3.03;;
18507;SDS011;9383;50.928;12.116;2022-07-29T02:20:06;2.63;;;1.80;;
18507;SDS011;9383;50.928;12.116;2022-07-29T02:22:35;4.30;;;2.10;;
18507;SDS011;9383;50.928;12.116;2022-07-29T02:25:05;3.53;;;1.58;;
18507;SDS011;9383;50.928;12.116;2022-07-29T02:27:34;5.82;;;1.90;;
18507;SDS011;9383;50.928;12.116;2022-07-29T02:30:04;3.60;;;1.70;;
18507;SDS011;9383;50.928;12.116;2022-07-29T02:32:34;2.67;;;1.48;;
18507;SDS011;9383;50.928;12.116;2022-07-29T02:35:04;3.88;;;1.83;;
18507;SDS011;9383;50.928;12.116;2022-07-29T02:37:32;3.30;;;1.90;;
18507;SDS011;9383;50.928;12.116;2022-07-29T02:40:00;3.67;;;1.70;;
18507;SDS011;9383;50.928;12.116;2022-07-29T02:42:28;2.33;;;1.50;;
18507;SDS011;9383;50.928;12.116;2022-07-29T02:44:56;6.05;;;1.65;;
18507;SDS011;9383;50.928;12.116;2022-07-29T02:47:23;3.20;;;1.80;;
18507;SDS011;9383;50.928;12.116;2022-07-29T02:55:23;2.83;;;1.80;;
18507;SDS011;9383;50.928;12.116;2022-07-29T02:58:11;3.22;;;1.85;;
18507;SDS011;9383;50.928;12.116;2022-07-29T03:00:45;2.35;;;1.63;;
18507;SDS011;9383;50.928;12.116;2022-07-29T03:03:15;2.67;;;1.52;;
18507;SDS011;9383;50.928;12.116;2022-07-29T03:05:46;3.92;;;2.03;;
18507;SDS011;9383;50.928;12.116;2022-07-29T03:08:12;5.32;;;2.10;;
18507;SDS011;9383;50.928;12.116;2022-07-29T03:10:43;2.55;;;2.00;;
18507;SDS011;9383;50.928;12.116;2022-07-29T03:13:12;5.47;;;1.60;;
18507;SDS011;9383;50.928;12.116;2022-07-29T03:15:40;3.53;;;1.60;;
18507;SDS011;9383;50.928;12.116;2022-07-29T03:18:10;2.97;;;1.65;;
18507;SDS011;9383;50.928;12.116;2022-07-29T03:20:37;5.05;;;1.70;;
18507;SDS011;9383;50.928;12.116;2022-07-29T03:23:04;2.00;;;1.80;;
18507;SDS011;9383;50.928;12.116;2022-07-29T03:25:30;2.78;;;1.70;;
18507;SDS011;9383;50.928;12.116;2022-07-29T03:27:56;2.97;;;2.10;;
18507;SDS011;9383;50.928;12.116;2022-07-29T03:30:23;1.83;;;1.58;;
18507;SDS011;9383;50.928;12.116;2022-07-29T03:32:50;3.50;;;1.70;;
18507;SDS011;9383;50.928;12.116;2022-07-29T03:35:18;4.38;;;1.65;;
18507;SDS011;9383;50.928;12.116;2022-07-29T03:37:45;2.05;;;1.40;;
18507;SDS011;9383;50.928;12.116;2022-07-29T03:40:15;4.95;;;1.80;;
18507;SDS011;9383;50.928;12.116;2022-07-29T03:42:51;3.75;;;1.48;;
18507;SDS011;9383;50.928;12.116;2022-07-29T03:45:20;4.22;;;1.90;;
18507;SDS011;9383;50.928;12.116;2022-07-29T03:47:50;4.18;;;1.65;;
18507;SDS011;9383;50.928;12.116;2022-07-29T03:50:22;5.68;;;2.13;;
18507;SDS011;9383;50.928;12.116;2022-07-29T03:52:48;4.68;;;1.83;;
18507;SDS011;9383;50.928;12.116;2022-07-29T03:55:15;4.20;;;1.63;;
18507;SDS011;9383;50.928;12.116;2022-07-29T03:57:42;1.70;;;1.50;;
18507;SDS011;9383;50.928;12.116;2022-07-29T04:00:10;5.50;;;1.70;;
18507;SDS011;9383;50.928;12.116;2022-07-29T04:02:37;5.57;;;2.10;;
18507;SDS011;9383;50.928;12.116;2022-07-29T04:05:05;3.75;;;1.52;;
18507;SDS011;9383;50.928;12.116;2022-07-29T04:07:38;2.67;;;1.80;;
18507;SDS011;9383;50.928;12.116;2022-07-29T04:10:05;3.83;;;1.83;;
18507;SDS011;9383;50.928;12.116;2022-07-29T04:12:32;4.20;;;2.03;;
18507;SDS011;9383;50.928;12.116;2022-07-29T04:14:58;11.55;;;2.60;;
18507;SDS011;9383;50.928;12.116;2022-07-29T04:17:25;25.40;;;4.10;;
18507;SDS011;9383;50.928;12.116;2022-07-29T04:19:51;15.65;;;2.95;;
18507;SDS011;9383;50.928;12.116;2022-07-29T04:22:37;14.35;;;2.53;;
18507;SDS011;9383;50.928;12.116;2022-07-29T04:25:22;4.28;;;2.00;;
18507;SDS011;9383;50.928;12.116;2022-07-29T04:27:48;3.53;;;2.10;;
18507;SDS011;9383;50.928;12.116;2022-07-29T04:30:30;4.18;;;1.52;;
18507;SDS011;9383;50.928;12.116;2022-07-29T04:32:58;5.18;;;2.10;;
18507;SDS011;9383;50.928;12.116;2022-07-29T04:35:26;4.00;;;1.50;;
18507;SDS011;9383;50.928;12.116;2022-07-29T04:37:53;11.93;;;2.53;;
18507;SDS011;9383;50.928;12.116;2022-07-29T04:40:20;6.07;;;1.80;;
18507;SDS011;9383;50.928;12.116;2022-07-29T04:42:46;6.18;;;1.85;;
18507;SDS011;9383;50.928;12.116;2022-07-29T04:45:13;11.07;;;2.75;;
18507;SDS011;9383;50.928;12.116;2022-07-29T04:47:39;4.45;;;1.90;;
18507;SDS011;9383;50.928;12.116;2022-07-29T04:50:06;4.32;;;2.08;;
18507;SDS011;9383;50.928;12.116;2022-07-29T04:52:33;2.90;;;2.08;;
18507;SDS011;9383;50.928;12.116;2022-07-29T04:55:00;4.15;;;1.85;;
18507;SDS011;9383;50.928;12.116;2022-07-29T04:57:29;6.75;;;2.03;;
18507;SDS011;9383;50.928;12.116;2022-07-29T04:59:55;9.13;;;2.20;;
18507;SDS011;9383;50.928;12.116;2022-07-29T05:02:22;5.63;;;2.05;;
18507;SDS011;9383;50.928;12.116;2022-07-29T05:04:48;2.97;;;1.95;;
18507;SDS011;9383;50.928;12.116;2022-07-29T05:07:15;4.90;;;1.85;;
18507;SDS011;9383;50.928;12.116;2022-07-29T05:09:41;6.70;;;2.10;;
18507;SDS011;9383;50.928;12.116;2022-07-29T05:12:08;4.50;;;2.17;;
18507;SDS011;9383;50.928;12.116;2022-07-29T05:14:35;5.38;;;1.83;;
18507;SDS011;9383;50.928;12.116;2022-07-29T05:17:01;2.10;;;1.50;;
18507;SDS011;9383;50.928;12.116;2022-07-29T05:19:28;3.22;;;2.00;;
18507;SDS011;9383;50.928;12.116;2022-07-29T05:21:54;4.68;;;1.90;;
18507;SDS011;9383;50.928;12.116;2022-07-29T05:24:21;4.63;;;2.20;;
18507;SDS011;9383;50.928;12.116;2022-07-29T05:26:48;2.72;;;1.88;;
18507;SDS011;9383;50.928;12.116;2022-07-29T05:29:14;4.65;;;2.15;;
18507;SDS011;9383;50.928;12.116;2022-07-29T05:31:40;2.08;;;1.92;;
18507;SDS011;9383;50.928;12.116;2022-07-29T05:34:07;6.00;;;2.67;;
18507;SDS011;9383;50.928;12.116;2022-07-29T05:36:33;4.00;;;1.95;;
18507;SDS011;9383;50.928;12.116;2022-07-29T05:38:59;3.90;;;2.00;;
18507;SDS011;9383;50.928;12.116;2022-07-29T05:41:25;4.63;;;2.05;;
18507;SDS011;9383;50.928;12.116;2022-07-29T05:43:52;4.90;;;2.15;;
18507;SDS011;9383;50.928;12.116;2022-07-29T05:46:18;4.90;;;1.80;;
18507;SDS011;9383;50.928;12.116;2022-07-29T05:48:45;4.93;;;2.30;;
18507;SDS011;9383;50.928;12.116;2022-07-29T05:51:12;4.47;;;2.10;;
18507;SDS011;9383;50.928;12.116;2022-07-29T05:53:39;3.85;;;1.90;;
18507;SDS011;9383;50.928;12.116;2022-07-29T05:56:06;6.65;;;2.15;;
18507;SDS011;9383;50.928;12.116;2022-07-29T05:58:32;2.03;;;1.92;;
18507;SDS011;9383;50.928;12.116;2022-07-29T06:00:58;3.33;;;2.00;;
18507;SDS011;9383;50.928;12.116;2022-07-29T06:03:25;5.45;;;2.22;;
18507;SDS011;9383;50.928;12.116;2022-07-29T06:05:52;2.38;;;2.00;;
18507;SDS011;9383;50.928;12.116;2022-07-29T06:08:18;5.38;;;2.00;;
18507;SDS011;9383;50.928;12.116;2022-07-29T06:10:44;2.65;;;2.25;;
18507;SDS011;9383;50.928;12.116;2022-07-29T06:13:11;5.22;;;2.30;;
18507;SDS011;9383;50.928;12.116;2022-07-29T06:15:37;4.10;;;2.15;;
18507;SDS011;9383;50.928;12.116;2022-07-29T06:18:04;4.65;;;2.20;;
18507;SDS011;9383;50.928;12.116;2022-07-29T06:20:34;7.13;;;2.45;;
18507;SDS011;9383;50.928;12.116;2022-07-29T06:23:01;4.32;;;2.28;;
18507;SDS011;9383;50.928;12.116;2022-07-29T06:25:29;5.88;;;2.53;;
18507;SDS011;9383;50.928;12.116;2022-07-29T06:27:56;6.75;;;2.85;;
18507;SDS011;9383;50.928;12.116;2022-07-29T06:30:22;3.50;;;2.05;;
18507;SDS011;9383;50.928;12.116;2022-07-29T06:32:49;6.57;;;2.40;;
18507;SDS011;9383;50.928;12.116;2022-07-29T06:35:16;5.95;;;2.63;;
18507;SDS011;9383;50.928;12.116;2022-07-29T06:37:42;8.95;;;2.65;;
18507;SDS011;9383;50.928;12.116;2022-07-29T06:40:09;7.32;;;2.38;;
18507;SDS011;9383;50.928;12.116;2022-07-29T06:42:54;8.68;;;2.97;;
18507;SDS011;9383;50.928;12.116;2022-07-29T06:45:21;4.47;;;2.22;;
18507;SDS011;9383;50.928;12.116;2022-07-29T06:47:47;5.70;;;2.60;;
18507;SDS011;9383;50.928;12.116;2022-07-29T06:50:15;7.93;;;2.67;;
18507;SDS011;9383;50.928;12.116;2022-07-29T06:52:42;7.25;;;2.92;;
18507;SDS011;9383;50.928;12.116;2022-07-29T06:55:08;5.82;;;2.33;;
18507;SDS011;9383;50.928;12.116;2022-07-29T06:57:34;5.15;;;2.80;;
18507;SDS011;9383;50.928;12.116;2022-07-29T07:00:01;4.43;;;2.40;;
18507;SDS011;9383;50.928;12.116;2022-07-29T07:02:30;5.95;;;2.97;;
18507;SDS011;9383;50.928;12.116;2022-07-29T07:04:56;6.45;;;2.63;;
18507;SDS011;9383;50.928;12.116;2022-07-29T07:07:24;4.47;;;2.90;;
18507;SDS011;9383;50.928;12.116;2022-07-29T07:09:50;5.35;;;2.97;;
18507;SDS011;9383;50.928;12.116;2022-07-29T07:12:17;5.55;;;2.88;;
18507;SDS011;9383;50.928;12.116;2022-07-29T07:14:44;8.68;;;2.67;;
18507;SDS011;9383;50.928;12.116;2022-07-29T07:17:10;9.00;;;2.67;;
18507;SDS011;9383;50.928;12.116;2022-07-29T07:19:36;6.05;;;2.47;;
18507;SDS011;9383;50.928;12.116;2022-07-29T07:22:02;5.75;;;2.47;;
18507;SDS011;9383;50.928;12.116;2022-07-29T07:24:29;3.28;;;2.78;;
18507;SDS011;9383;50.928;12.116;2022-07-29T07:26:55;4.97;;;2.90;;
18507;SDS011;9383;50.928;12.116;2022-07-29T07:29:22;4.47;;;2.88;;
18507;SDS011;9383;50.928;12.116;2022-07-29T07:31:49;4.75;;;3.20;;
18507;SDS011;9383;50.928;12.116;2022-07-29T07:34:17;9.18;;;2.75;;
18507;SDS011;9383;50.928;12.116;2022-07-29T07:36:43;6.35;;;3.08;;
18507;SDS011;9383;50.928;12.116;2022-07-29T07:39:10;5.65;;;3.00;;
18507;SDS011;9383;50.928;12.116;2022-07-29T07:41:36;6.63;;;3.22;;
18507;SDS011;9383;50.928;12.116;2022-07-29T07:44:02;5.20;;;2.95;;
18507;SDS011;9383;50.928;12.116;2022-07-29T07:46:29;4.65;;;3.20;;
18507;SDS011;9383;50.928;12.116;2022-07-29T07:48:56;6.80;;;3.33;;
18507;SDS011;9383;50.928;12.116;2022-07-29T07:51:22;5.22;;;3.20;;
18507;SDS011;9383;50.928;12.116;2022-07-29T07:53:49;7.95;;;3.50;;
18507;SDS011;9383;50.928;12.116;2022-07-29T07:56:15;4.45;;;2.85;;
18507;SDS011;9383;50.928;12.116;2022-07-29T07:58:42;7.05;;;3.20;;
18507;SDS011;9383;50.928;12.116;2022-07-29T08:01:09;5.95;;;3.42;;
18507;SDS011;9383;50.928;12.116;2022-07-29T08:03:35;8.40;;;3.13;;
18507;SDS011;9383;50.928;12.116;2022-07-29T08:06:03;6.43;;;2.90;;
18507;SDS011;9383;50.928;12.116;2022-07-29T08:08:30;7.88;;;3.40;;
18507;SDS011;9383;50.928;12.116;2022-07-29T08:10:56;8.30;;;3.65;;
18507;SDS011;9383;50.928;12.116;2022-07-29T08:13:25;6.65;;;3.20;;
18507;SDS011;9383;50.928;12.116;2022-07-29T08:15:55;5.95;;;3.05;;
18507;SDS011;9383;50.928;12.116;2022-07-29T08:18:36;5.30;;;2.75;;
18507;SDS011;9383;50.928;12.116;2022-07-29T08:21:04;4.75;;;3.00;;
18507;SDS011;9383;50.928;12.116;2022-07-29T08:23:31;6.00;;;2.90;;
18507;SDS011;9383;50.928;12.116;2022-07-29T08:26:10;5.55;;;3.20;;
18507;SDS011;9383;50.928;12.116;2022-07-29T08:28:37;4.70;;;2.75;;
18507;SDS011;9383;50.928;12.116;2022-07-29T08:31:05;4.45;;;2.70;;
18507;SDS011;9383;50.928;12.116;2022-07-29T08:33:32;3.10;;;2.55;;
18507;SDS011;9383;50.928;12.116;2022-07-29T08:35:58;8.88;;;3.20;;
18507;SDS011;9383;50.928;12.116;2022-07-29T08:38:25;4.38;;;3.00;;
18507;SDS011;9383;50.928;12.116;2022-07-29T08:40:52;3.90;;;2.50;;
18507;SDS011;9383;50.928;12.116;2022-07-29T08:43:19;4.38;;;2.90;;
18507;SDS011;9383;50.928;12.116;2022-07-29T08:45:49;3.58;;;2.75;;
18507;SDS011;9383;50.928;12.116;2022-07-29T08:48:17;4.75;;;2.67;;
18507;SDS011;9383;50.928;12.116;2022-07-29T08:50:46;3.47;;;2.53;;
18507;SDS011;9383;50.928;12.116;2022-07-29T08:53:17;4.43;;;2.42;;
18507;SDS011;9383;50.928;12.116;2022-07-29T08:55:48;3.38;;;2.55;;
18507;SDS011;9383;50.928;12.116;2022-07-29T08:58:15;4.13;;;2.53;;
18507;SDS011;9383;50.928;12.116;2022-07-29T09:00:47;6.18;;;2.75;;
18507;SDS011;9383;50.928;12.116;2022-07-29T09:03:19;8.38;;;2.80;;
18507;SDS011;9383;50.928;12.116;2022-07-29T09:05:49;5.55;;;2.50;;
18507;SDS011;9383;50.928;12.116;2022-07-29T09:08:16;4.72;;;2.45;;
18507;SDS011;9383;50.928;12.116;2022-07-29T09:10:44;7.20;;;3.00;;
18507;SDS011;9383;50.928;12.116;2022-07-29T09:13:11;5.70;;;2.55;;
18507;SDS011;9383;50.928;12.116;2022-07-29T09:15:37;8.40;;;2.75;;
18507;SDS011;9383;50.928;12.116;2022-07-29T09:18:03;6.25;;;3.13;;
18507;SDS011;9383;50.928;12.116;2022-07-29T09:20:29;10.27;;;3.05;;
18507;SDS011;9383;50.928;12.116;2022-07-29T09:23:15;7.28;;;2.78;;
18507;SDS011;9383;50.928;12.116;2022-07-29T09:25:41;5.57;;;2.60;;
18507;SDS011;9383;50.928;12.116;2022-07-29T09:28:18;9.10;;;3.03;;
18507;SDS011;9383;50.928;12.116;2022-07-29T09:30:50;8.93;;;3.17;;
18507;SDS011;9383;50.928;12.116;2022-07-29T09:33:20;10.30;;;3.38;;
18507;SDS011;9383;50.928;12.116;2022-07-29T09:38:34;7.78;;;3.00;;
18507;SDS011;9383;50.928;12.116;2022-07-29T09:41:03;9.82;;;3.25;;
18507;SDS011;9383;50.928;12.116;2022-07-29T09:43:30;6.65;;;3.05;;
18507;SDS011;9383;50.928;12.116;2022-07-29T09:45:56;9.05;;;3.03;;
18507;SDS011;9383;50.928;12.116;2022-07-29T09:48:37;9.05;;;3.55;;
18507;SDS011;9383;50.928;12.116;2022-07-29T09:51:04;7.10;;;3.28;;
18507;SDS011;9383;50.928;12.116;2022-07-29T09:56:02;5.53;;;3.40;;
18507;SDS011;9383;50.928;12.116;2022-07-29T09:58:30;6.70;;;3.08;;
18507;SDS011;9383;50.928;12.116;2022-07-29T10:00:58;5.07;;;3.00;;
18507;SDS011;9383;50.928;12.116;2022-07-29T10:03:25;12.15;;;3.05;;
18507;SDS011;9383;50.928;12.116;2022-07-29T10:06:10;5.13;;;2.97;;
18507;SDS011;9383;50.928;12.116;2022-07-29T10:08:38;9.65;;;3.53;;
18507;SDS011;9383;50.928;12.116;2022-07-29T10:11:10;8.38;;;3.20;;
18507;SDS011;9383;50.928;12.116;2022-07-29T10:13:42;10.88;;;3.20;;
18507;SDS011;9383;50.928;12.116;2022-07-29T10:16:10;10.05;;;3.15;;
18507;SDS011;9383;50.928;12.116;2022-07-29T10:18:38;6.95;;;3.58;;
18507;SDS011;9383;50.928;12.116;2022-07-29T10:21:06;7.65;;;3.22;;
18507;SDS011;9383;50.928;12.116;2022-07-29T10:23:32;7.85;;;3.00;;
18507;SDS011;9383;50.928;12.116;2022-07-29T10:26:00;6.80;;;3.03;;
18507;SDS011;9383;50.928;12.116;2022-07-29T10:28:29;7.82;;;3.10;;
18507;SDS011;9383;50.928;12.116;2022-07-29T10:31:00;10.90;;;3.33;;
18507;SDS011;9383;50.928;12.116;2022-07-29T10:42:22;9.55;;;3.30;;
18507;SDS011;9383;50.928;12.116;2022-07-29T10:44:53;4.45;;;3.03;;
18507;SDS011;9383;50.928;12.116;2022-07-29T10:47:23;12.95;;;3.63;;
18507;SDS011;9383;50.928;12.116;2022-07-29T10:50:04;7.13;;;2.80;;
18507;SDS011;9383;50.928;12.116;2022-07-29T10:55:36;6.53;;;3.47;;
18507;SDS011;9383;50.928;12.116;2022-07-29T10:58:13;8.48;;;3.88;;
18507;SDS011;9383;50.928;12.116;2022-07-29T11:00:50;8.90;;;3.90;;
18507;SDS011;9383;50.928;12.116;2022-07-29T11:06:07;5.82;;;3.55;;
18507;SDS011;9383;50.928;12.116;2022-07-29T11:08:33;8.60;;;4.20;;
18507;SDS011;9383;50.928;12.116;2022-07-29T11:11:30;8.45;;;3.50;;
18507;SDS011;9383;50.928;12.116;2022-07-29T11:13:56;13.70;;;3.83;;
18507;SDS011;9383;50.928;12.116;2022-07-29T11:16:23;7.72;;;3.70;;
18507;SDS011;9383;50.928;12.116;2022-07-29T11:21:38;9.45;;;4.20;;
18507;SDS011;9383;50.928;12.116;2022-07-29T11:24:13;12.07;;;4.40;;
18507;SDS011;9383;50.928;12.116;2022-07-29T11:29:47;7.43;;;4.45;;
18507;SDS011;9383;50.928;12.116;2022-07-29T11:32:23;4.90;;;4.25;;
18507;SDS011;9383;50.928;12.116;2022-07-29T11:37:40;5.20;;;3.75;;
18507;SDS011;9383;50.928;12.116;2022-07-29T11:45:08;5.28;;;3.40;;
18507;SDS011;9383;50.928;12.116;2022-07-29T11:47:41;4.97;;;3.65;;
18507;SDS011;9383;50.928;12.116;2022-07-29T11:50:17;4.53;;;3.72;;
18507;SDS011;9383;50.928;12.116;2022-07-29T11:52:55;4.63;;;3.85;;
18507;SDS011;9383;50.928;12.116;2022-07-29T11:55:23;4.63;;;3.58;;
18507;SDS011;9383;50.928;12.116;2022-07-29T11:57:53;4.50;;;3.40;;
18507;SDS011;9383;50.928;12.116;2022-07-29T12:00:28;5.60;;;3.47;;
18507;SDS011;9383;50.928;12.116;2022-07-29T12:03:02;4.93;;;3.60;;
18507;SDS011;9383;50.928;12.116;2022-07-29T12:05:34;3.58;;;3.28;;
18507;SDS011;9383;50.928;12.116;2022-07-29T12:08:11;4.80;;;3.55;;
18507;SDS011;9383;50.928;12.116;2022-07-29T12:10:39;5.28;;;3.85;;
18507;SDS011;9383;50.928;12.116;2022-07-29T12:13:07;4.97;;;3.63;;
18507;SDS011;9383;50.928;12.116;2022-07-29T12:15:35;5.65;;;3.50;;
18507;SDS011;9383;50.928;12.116;2022-07-29T12:18:15;5.85;;;4.10;;
18507;SDS011;9383;50.928;12.116;2022-07-29T12:20:45;6.53;;;3.88;;
18507;SDS011;9383;50.928;12.116;2022-07-29T12:23:13;7.03;;;3.60;;
18507;SDS011;9383;50.928;12.116;2022-07-29T12:25:42;7.97;;;3.83;;
18507;SDS011;9383;50.928;12.116;2022-07-29T12:28:11;6.97;;;4.10;;
18507;SDS011;9383;50.928;12.116;2022-07-29T12:30:44;4.53;;;3.88;;
18507;SDS011;9383;50.928;12.116;2022-07-29T12:35:52;4.80;;;3.63;;
18507;SDS011;9383;50.928;12.116;2022-07-29T12:38:28;5.22;;;3.50;;
18507;SDS011;9383;50.928;12.116;2022-07-29T12:40:56;5.78;;;4.13;;
18507;SDS011;9383;50.928;12.116;2022-07-29T12:43:23;4.60;;;4.20;;
18507;SDS011;9383;50.928;12.116;2022-07-29T12:45:52;7.65;;;3.80;;
18507;SDS011;9383;50.928;12.116;2022-07-29T12:48:36;4.40;;;3.70;;
18507;SDS011;9383;50.928;12.116;2022-07-29T12:51:04;5.95;;;4.00;;
18507;SDS011;9383;50.928;12.116;2022-07-29T12:53:33;6.10;;;4.22;;
18507;SDS011;9383;50.928;12.116;2022-07-29T12:56:02;6.05;;;4.15;;
18507;SDS011;9383;50.928;12.116;2022-07-29T12:58:34;6.95;;;4.10;;
18507;SDS011;9383;50.928;12.116;2022-07-29T13:01:04;4.28;;;3.88;;
18507;SDS011;9383;50.928;12.116;2022-07-29T13:11:40;5.10;;;4.60;;
18507;SDS011;9383;50.928;12.116;2022-07-29T13:14:31;7.25;;;4.03;;
18507;SDS011;9383;50.928;12.116;2022-07-29T13:17:02;6.68;;;3.95;;
18507;SDS011;9383;50.928;12.116;2022-07-29T13:19:39;6.10;;;3.88;;
18507;SDS011;9383;50.928;12.116;2022-07-29T13:22:11;4.80;;;3.60;;
18507;SDS011;9383;50.928;12.116;2022-07-29T13:24:46;4.45;;;4.07;;
18507;SDS011;9383;50.928;12.116;2022-07-29T13:27:15;4.05;;;3.75;;
18507;SDS011;9383;50.928;12.116;2022-07-29T13:29:43;4.40;;;4.00;;
18507;SDS011;9383;50.928;12.116;2022-07-29T13:32:09;4.65;;;3.92;;
18507;SDS011;9383;50.928;12.116;2022-07-29T13:34:37;6.78;;;4.10;;
18507;SDS011;9383;50.928;12.116;2022-07-29T13:37:06;7.25;;;3.85;;
18507;SDS011;9383;50.928;12.116;2022-07-29T13:39:32;7.95;;;3.90;;
18507;SDS011;9383;50.928;12.116;2022-07-29T13:41:59;7.40;;;3.83;;
18507;SDS011;9383;50.928;12.116;2022-07-29T13:44:25;5.05;;;4.30;;
18507;SDS011;9383;50.928;12.116;2022-07-29T13:46:51;6.22;;;4.28;;
18507;SDS011;9383;50.928;12.116;2022-07-29T13:49:17;5.82;;;4.25;;
18507;SDS011;9383;50.928;12.116;2022-07-29T13:51:55;5.88;;;3.97;;
18507;SDS011;9383;50.928;12.116;2022-07-29T13:54:22;4.70;;;4.03;;
18507;SDS011;9383;50.928;12.116;2022-07-29T13:56:49;8.80;;;3.80;;
18507;SDS011;9383;50.928;12.116;2022-07-29T13:59:17;6.47;;;3.78;;
18507;SDS011;9383;50.928;12.116;2022-07-29T14:01:43;7.32;;;3.90;;
18507;SDS011;9383;50.928;12.116;2022-07-29T14:04:10;4.75;;;3.78;;
18507;SDS011;9383;50.928;12.116;2022-07-29T14:06:36;9.57;;;3.78;;
18507;SDS011;9383;50.928;12.116;2022-07-29T14:09:03;8.25;;;3.58;;
18507;SDS011;9383;50.928;12.116;2022-07-29T14:11:36;6.63;;;3.72;;
18507;SDS011;9383;50.928;12.116;2022-07-29T14:14:04;3.80;;;3.40;;
18507;SDS011;9383;50.928;12.116;2022-07-29T14:16:31;8.02;;;3.92;;
18507;SDS011;9383;50.928;12.116;2022-07-29T14:19:00;6.63;;;3.75;;
18507;SDS011;9383;50.928;12.116;2022-07-29T14:21:26;4.60;;;3.95;;
18507;SDS011;9383;50.928;12.116;2022-07-29T14:23:52;4.85;;;3.53;;
18507;SDS011;9383;50.928;12.116;2022-07-29T14:26:20;4.38;;;3.97;;
18507;SDS011;9383;50.928;12.116;2022-07-29T14:28:47;3.75;;;3.38;;
18507;SDS011;9383;50.928;12.116;2022-07-29T14:31:14;4.50;;;3.75;;
18507;SDS011;9383;50.928;12.116;2022-07-29T14:33:41;5.15;;;3.67;;
18507;SDS011;9383;50.928;12.116;2022-07-29T14:36:08;8.55;;;4.07;;
18507;SDS011;9383;50.928;12.116;2022-07-29T14:38:34;4.18;;;3.88;;
18507;SDS011;9383;50.928;12.116;2022-07-29T14:41:02;4.85;;;3.42;;
18507;SDS011;9383;50.928;12.116;2022-07-29T14:43:29;4.38;;;3.13;;
18507;SDS011;9383;50.928;12.116;2022-07-29T14:45:55;4.00;;;3.20;;
18507;SDS011;9383;50.928;12.116;2022-07-29T14:48:21;3.10;;;2.90;;
18507;SDS011;9383;50.928;12.116;2022-07-29T14:50:47;3.10;;;2.80;;
18507;SDS011;9383;50.928;12.116;2022-07-29T14:53:14;3.10;;;2.80;;
18507;SDS011;9383;50.928;12.116;2022-07-29T14:55:40;3.38;;;3.08;;
18507;SDS011;9383;50.928;12.116;2022-07-29T14:58:07;3.38;;;3.08;;
18507;SDS011;9383;50.928;12.116;2022-07-29T15:00:35;3.45;;;2.95;;
18507;SDS011;9383;50.928;12.116;2022-07-29T15:03:02;3.45;;;2.80;;
18507;SDS011;9383;50.928;12.116;2022-07-29T15:05:29;3.38;;;2.95;;
18507;SDS011;9383;50.928;12.116;2022-07-29T15:07:58;3.85;;;2.55;;
18507;SDS011;9383;50.928;12.116;2022-07-29T15:10:25;5.55;;;2.90;;
18507;SDS011;9383;50.928;12.116;2022-07-29T15:12:53;3.05;;;2.80;;
18507;SDS011;9383;50.928;12.116;2022-07-29T15:15:20;3.40;;;2.88;;
18507;SDS011;9383;50.928;12.116;2022-07-29T15:17:46;5.47;;;2.50;;
18507;SDS011;9383;50.928;12.116;2022-07-29T15:20:13;4.28;;;2.67;;
18507;SDS011;9383;50.928;12.116;2022-07-29T15:22:39;4.18;;;2.63;;
18507;SDS011;9383;50.928;12.116;2022-07-29T15:25:10;2.97;;;2.70;;
18507;SDS011;9383;50.928;12.116;2022-07-29T15:27:36;4.93;;;2.90;;
18507;SDS011;9383;50.928;12.116;2022-07-29T15:30:02;3.83;;;2.95;;
18507;SDS011;9383;50.928;12.116;2022-07-29T15:32:29;3.80;;;3.50;;
18507;SDS011;9383;50.928;12.116;2022-07-29T15:34:55;3.40;;;3.03;;
18507;SDS011;9383;50.928;12.116;2022-07-29T15:37:21;5.20;;;3.50;;
18507;SDS011;9383;50.928;12.116;2022-07-29T15:39:47;5.65;;;3.00;;
18507;SDS011;9383;50.928;12.116;2022-07-29T15:42:14;3.78;;;3.05;;
18507;SDS011;9383;50.928;12.116;2022-07-29T15:44:41;3.05;;;2.85;;
18507;SDS011;9383;50.928;12.116;2022-07-29T15:47:07;3.53;;;3.22;;
18507;SDS011;9383;50.928;12.116;2022-07-29T15:49:36;4.05;;;3.25;;
18507;SDS011;9383;50.928;12.116;2022-07-29T15:52:06;5.63;;;3.53;;
18507;SDS011;9383;50.928;12.116;2022-07-29T15:54:36;4.32;;;3.20;;
18507;SDS011;9383;50.928;12.116;2022-07-29T15:57:05;3.63;;;3.20;;